createdAt,value
2022-08-19T00:00:11.236Z,11.50
2022-08-19T00:02:39.143Z,12.02
2022-08-19T00:05:20.592Z,11.23
2022-08-19T00:07:49.528Z,12.00
2022-08-19T00:10:19.431Z,12.32
2022-08-19T00:12:47.388Z,13.20
2022-08-19T00:15:19.864Z,12.27
2022-08-19T00:17:48.563Z,13.23
2022-08-19T00:20:20.892Z,12.90
2022-08-19T00:22:49.458Z,13.25
2022-08-19T00:25:17.807Z,13.00
2022-08-19T00:27:45.645Z,13.23
2022-08-19T00:30:13.796Z,12.98
2022-08-19T00:32:41.665Z,12.98
2022-08-19T00:35:10.750Z,12.48
2022-08-19T00:37:44.176Z,12.80
2022-08-19T00:40:13.683Z,13.90
2022-08-19T00:42:42.296Z,13.00
2022-08-19T00:45:22.008Z,13.20
2022-08-19T00:47:50.070Z,13.98
2022-08-19T00:50:21.119Z,14.30
2022-08-19T00:52:52.354Z,13.18
2022-08-19T00:55:25.880Z,12.30
2022-08-19T00:58:02.527Z,14.82
2022-08-19T01:00:32.608Z,15.15
2022-08-19T01:03:00.606Z,13.55
2022-08-19T01:05:30.249Z,14.60
2022-08-19T01:08:01.815Z,13.98
2022-08-19T01:10:36.666Z,14.13
2022-08-19T01:13:05.946Z,15.07
2022-08-19T01:15:43.139Z,13.35
2022-08-19T01:18:14.768Z,14.25
2022-08-19T01:20:44.145Z,15.18
2022-08-19T01:23:12.980Z,15.32
2022-08-19T01:25:50.931Z,14.45
2022-08-19T01:28:40.073Z,15.27
2022-08-19T01:31:27.158Z,14.13
2022-08-19T01:33:58.432Z,15.73
2022-08-19T01:36:35.065Z,15.20
2022-08-19T01:39:08.611Z,15.00
2022-08-19T01:41:36.967Z,15.48
2022-08-19T01:44:17.774Z,16.10
2022-08-19T01:46:49.515Z,15.93
2022-08-19T01:49:20.730Z,14.88
2022-08-19T01:51:50.488Z,16.10
2022-08-19T01:54:23.166Z,15.50
2022-08-19T01:57:07.744Z,15.50
2022-08-19T01:59:37.512Z,17.52
2022-08-19T02:02:09.743Z,17.38
2022-08-19T02:04:39.086Z,15.77
2022-08-19T02:07:09.147Z,16.35
2022-08-19T02:09:37.248Z,15.88
2022-08-19T02:12:08.629Z,16.17
2022-08-19T02:14:37.680Z,17.20
2022-08-19T02:17:05.589Z,17.35
2022-08-19T02:19:33.812Z,17.38
2022-08-19T02:22:01.984Z,17.45
2022-08-19T02:24:29.812Z,17.15
2022-08-19T02:26:58.328Z,18.58
2022-08-19T02:29:26.154Z,18.15
2022-08-19T02:31:54.120Z,20.27
2022-08-19T02:34:22.022Z,17.77
2022-08-19T02:36:51.743Z,17.90
2022-08-19T02:39:20.417Z,18.08
2022-08-19T02:41:48.293Z,18.30
2022-08-19T02:44:29.689Z,17.35
2022-08-19T02:47:00.359Z,17.58
2022-08-19T02:49:28.209Z,18.67
2022-08-19T02:51:56.081Z,17.98
2022-08-19T02:54:23.850Z,19.05
2022-08-19T02:56:51.649Z,17.98
2022-08-19T02:59:20.301Z,19.10
2022-08-19T03:01:50.945Z,17.27
2022-08-19T03:04:20.297Z,19.35
2022-08-19T03:06:49.492Z,18.65
2022-08-19T03:09:20.614Z,18.88
2022-08-19T03:11:48.689Z,18.50
2022-08-19T03:14:20.471Z,17.63
2022-08-19T03:16:53.389Z,19.20
2022-08-19T03:19:22.471Z,19.35
2022-08-19T03:21:51.580Z,19.50
2022-08-19T03:24:21.168Z,19.63
2022-08-19T03:26:53.574Z,19.90
2022-08-19T03:29:30.294Z,20.35
2022-08-19T03:32:02.030Z,20.00
2022-08-19T03:34:35.625Z,20.42
2022-08-19T03:37:10.569Z,20.05
2022-08-19T03:39:40.340Z,21.67
2022-08-19T03:42:38.186Z,20.75
2022-08-19T03:44:56.709Z,21.40
2022-08-19T03:47:24.512Z,19.70
2022-08-19T03:49:52.437Z,20.40
2022-08-19T03:52:20.398Z,20.63
2022-08-19T03:54:48.216Z,20.17
2022-08-19T03:57:16.022Z,20.38
2022-08-19T03:59:44.544Z,21.17
2022-08-19T04:02:13.723Z,19.95
2022-08-19T04:04:44.391Z,22.30
2022-08-19T04:07:17.131Z,20.58
2022-08-19T04:09:45.100Z,20.05
2022-08-19T04:12:12.951Z,18.73
2022-08-19T04:14:40.844Z,21.40
2022-08-19T04:17:08.732Z,20.08
2022-08-19T04:19:37.628Z,19.83
2022-08-19T04:22:06.079Z,20.98
2022-08-19T04:24:36.286Z,19.80
2022-08-19T04:27:07.137Z,21.40
2022-08-19T04:29:35.149Z,20.75
2022-08-19T04:32:09.437Z,21.10
2022-08-19T04:35:02.423Z,20.88
2022-08-19T04:37:35.058Z,19.45
2022-08-19T04:40:26.107Z,21.20
2022-08-19T04:42:54.683Z,20.85
2022-08-19T04:45:23.260Z,19.77
2022-08-19T04:47:58.399Z,22.70
2022-08-19T04:50:46.039Z,22.20
2022-08-19T04:53:13.817Z,22.92
2022-08-19T04:55:43.554Z,22.77
2022-08-19T04:58:11.376Z,21.20
2022-08-19T05:00:40.996Z,20.77
2022-08-19T05:03:09.534Z,20.30
2022-08-19T05:05:44.668Z,21.25
2022-08-19T05:08:19.511Z,20.90
2022-08-19T05:10:59.638Z,21.30
2022-08-19T05:13:28.180Z,21.27
2022-08-19T05:15:58.652Z,20.88
2022-08-19T05:18:46.240Z,20.45
2022-08-19T05:21:37.369Z,20.70
2022-08-19T05:24:10.495Z,19.17
2022-08-19T05:26:40.533Z,20.55
2022-08-19T05:29:10.281Z,19.80
2022-08-19T05:31:42.283Z,20.50
2022-08-19T05:34:20.448Z,21.15
2022-08-19T05:36:49.623Z,21.00
2022-08-19T05:39:21.504Z,21.05
2022-08-19T05:41:58.170Z,21.15
2022-08-19T05:44:32.691Z,20.17
2022-08-19T05:47:03.997Z,20.33
2022-08-19T05:49:34.053Z,19.70
2022-08-19T05:52:12.815Z,20.88
2022-08-19T05:54:42.569Z,19.45
2022-08-19T05:57:11.735Z,20.45
2022-08-19T05:59:41.221Z,22.75
2022-08-19T06:02:10.205Z,19.02
2022-08-19T06:04:38.706Z,20.83
2022-08-19T06:07:12.298Z,21.63
2022-08-19T06:09:43.772Z,21.75
2022-08-19T06:12:32.856Z,20.70
2022-08-19T06:15:02.844Z,20.92
2022-08-19T06:17:31.929Z,21.40
2022-08-19T06:20:16.256Z,21.05
2022-08-19T06:22:49.750Z,18.08
2022-08-19T06:25:18.264Z,20.50
2022-08-19T06:28:11.866Z,20.75
2022-08-19T06:30:34.591Z,19.50
2022-08-19T06:33:02.408Z,20.92
2022-08-19T06:35:30.633Z,19.13
2022-08-19T06:37:58.554Z,20.48
2022-08-19T06:40:28.485Z,18.92
2022-08-19T06:42:57.383Z,18.88
2022-08-19T06:45:35.498Z,18.38
2022-08-19T06:48:08.434Z,20.13
2022-08-19T06:50:36.842Z,19.90
2022-08-19T06:53:08.312Z,18.13
2022-08-19T06:55:36.344Z,19.38
2022-08-19T06:58:06.110Z,19.45
2022-08-19T07:00:34.834Z,19.08
2022-08-19T07:03:07.647Z,19.27
2022-08-19T07:05:45.814Z,18.17
2022-08-19T07:08:15.005Z,19.40
2022-08-19T07:10:47.543Z,18.02
2022-08-19T07:13:15.582Z,18.60
2022-08-19T07:15:43.468Z,17.25
2022-08-19T07:18:11.626Z,18.90
2022-08-19T07:20:41.963Z,17.90
2022-08-19T07:23:16.653Z,19.00
2022-08-19T07:25:51.365Z,17.92
2022-08-19T07:28:24.704Z,17.20
2022-08-19T07:30:53.923Z,18.55
2022-08-19T07:33:23.281Z,17.20
2022-08-19T07:35:51.165Z,18.42
2022-08-19T07:38:19.079Z,17.50
2022-08-19T07:40:47.078Z,18.00
2022-08-19T07:43:17.828Z,17.77
2022-08-19T07:45:47.936Z,17.45
2022-08-19T07:48:15.963Z,17.95
2022-08-19T07:50:44.289Z,18.98
2022-08-19T07:53:13.361Z,16.35
2022-08-19T07:55:43.836Z,16.23
2022-08-19T07:58:18.474Z,17.40
2022-08-19T08:00:49.552Z,17.42
2022-08-19T08:03:42.116Z,17.25
2022-08-19T08:06:30.681Z,17.20
2022-08-19T08:12:35.113Z,17.00
2022-08-19T08:15:08.996Z,16.42
2022-08-19T08:17:49.198Z,16.45
2022-08-19T08:20:20.491Z,15.98
2022-08-19T08:23:07.355Z,15.10
2022-08-19T08:25:37.239Z,16.58
2022-08-19T08:28:06.285Z,16.10
2022-08-19T08:30:36.789Z,17.10
2022-08-19T08:33:05.369Z,15.85
2022-08-19T08:35:34.391Z,16.98
2022-08-19T08:38:04.729Z,16.88
2022-08-19T08:41:00.024Z,17.00
2022-08-19T08:43:36.822Z,15.00
2022-08-19T08:46:13.219Z,15.15
2022-08-19T08:48:52.595Z,16.70
2022-08-19T08:52:03.064Z,15.85
2022-08-19T08:54:49.091Z,16.75
2022-08-19T08:57:40.889Z,15.02
2022-08-19T09:00:17.530Z,15.02
2022-08-19T09:02:50.518Z,14.27
2022-08-19T09:05:25.989Z,15.23
2022-08-19T09:08:35.345Z,14.35
2022-08-19T09:11:15.603Z,14.30
2022-08-19T09:14:06.078Z,15.57
2022-08-19T09:16:34.482Z,13.98
2022-08-19T09:19:08.137Z,13.93
2022-08-19T09:21:36.271Z,12.93
2022-08-19T09:24:07.309Z,14.13
2022-08-19T09:26:47.552Z,13.70
2022-08-19T09:29:22.692Z,12.63
2022-08-19T09:31:51.123Z,13.48
2022-08-19T09:34:22.112Z,13.70
2022-08-19T09:36:54.673Z,12.60
2022-08-19T09:39:23.432Z,13.38
2022-08-19T09:41:51.575Z,12.30
2022-08-19T09:44:23.069Z,12.25
2022-08-19T09:46:52.028Z,12.93
2022-08-19T09:49:22.877Z,11.55
2022-08-19T09:51:55.446Z,12.35
2022-08-19T09:54:25.225Z,11.13
2022-08-19T09:56:54.695Z,12.13
2022-08-19T09:59:24.429Z,12.15
2022-08-19T10:01:52.807Z,12.20
2022-08-19T10:04:22.424Z,12.43
2022-08-19T10:06:53.889Z,10.50
2022-08-19T10:09:33.570Z,12.20
2022-08-19T10:12:06.072Z,11.60
2022-08-19T10:14:34.781Z,10.27
2022-08-19T10:17:17.451Z,11.30
2022-08-19T10:19:55.020Z,11.05
2022-08-19T10:22:25.660Z,10.55
2022-08-19T10:24:54.613Z,10.93
2022-08-19T10:27:22.680Z,11.55
2022-08-19T10:29:50.593Z,10.07
2022-08-19T10:32:18.466Z,10.80
2022-08-19T10:35:05.326Z,10.65
2022-08-19T10:37:34.003Z,10.23
2022-08-19T10:40:05.177Z,9.65
2022-08-19T10:42:33.370Z,10.18
2022-08-19T10:45:01.475Z,9.40
2022-08-19T10:47:31.864Z,9.45
2022-08-19T10:50:18.379Z,9.27
2022-08-19T10:52:50.765Z,8.75
2022-08-19T10:55:41.872Z,8.75
2022-08-19T10:58:24.804Z,9.25
2022-08-19T11:00:56.485Z,9.38
2022-08-19T11:03:26.632Z,8.60
2022-08-19T11:06:07.062Z,8.93
2022-08-19T11:08:38.674Z,8.15
2022-08-19T11:11:09.087Z,8.60
2022-08-19T11:13:42.636Z,7.82
2022-08-19T11:16:14.868Z,7.55
2022-08-19T11:18:48.035Z,8.83
2022-08-19T11:21:25.285Z,7.75
2022-08-19T11:23:57.706Z,6.68
2022-08-19T11:26:26.741Z,7.07
2022-08-19T11:28:56.529Z,7.07
2022-08-19T11:31:32.122Z,7.05
2022-08-19T11:34:04.085Z,7.18
2022-08-19T11:36:34.351Z,6.68
2022-08-19T11:39:06.517Z,6.40
2022-08-19T11:41:34.806Z,6.83
2022-08-19T11:44:04.258Z,7.35
2022-08-19T11:46:33.069Z,6.88
2022-08-19T11:49:03.968Z,5.75
2022-08-19T11:51:33.402Z,6.53
2022-08-19T11:54:02.427Z,7.25
2022-08-19T11:56:30.384Z,6.65
2022-08-19T11:58:58.579Z,6.25
2022-08-19T12:01:28.205Z,6.35
2022-08-19T12:03:57.804Z,6.93
2022-08-19T12:06:31.152Z,6.35
2022-08-19T12:09:07.231Z,6.03
2022-08-19T12:11:35.273Z,5.88
2022-08-19T12:14:03.679Z,7.07
2022-08-19T12:16:33.697Z,5.10
2022-08-19T12:19:05.225Z,4.75
2022-08-19T12:21:36.468Z,4.85
2022-08-19T12:24:07.318Z,5.47
2022-08-19T12:26:53.488Z,5.63
2022-08-19T12:29:29.020Z,5.38
2022-08-19T12:32:03.809Z,4.95
2022-08-19T12:34:33.336Z,5.88
2022-08-19T12:37:05.616Z,7.00
2022-08-19T12:39:40.066Z,6.72
2022-08-19T12:42:09.742Z,6.82
2022-08-19T12:44:41.630Z,5.88
2022-08-19T12:47:12.062Z,6.03
2022-08-19T12:49:54.963Z,6.35
2022-08-19T12:52:28.088Z,7.38
2022-08-19T12:54:58.281Z,6.55
2022-08-19T12:57:32.857Z,7.07
2022-08-19T13:00:13.578Z,6.85
2022-08-19T13:02:45.207Z,6.85
2022-08-19T13:05:21.859Z,7.05
2022-08-19T13:07:53.296Z,7.30
2022-08-19T13:10:23.037Z,7.55
2022-08-19T13:12:52.878Z,6.90
2022-08-19T13:15:24.000Z,7.13
2022-08-19T13:17:57.123Z,7.68
2022-08-19T13:22:54.121Z,7.18
2022-08-19T13:25:22.553Z,7.47
2022-08-19T13:27:51.810Z,7.65
2022-08-19T13:30:39.678Z,7.18
2022-08-19T13:33:11.896Z,7.32
2022-08-19T13:35:58.127Z,6.75
2022-08-19T13:38:26.531Z,6.40
2022-08-19T13:40:56.269Z,6.68
2022-08-19T13:43:27.920Z,6.65
2022-08-19T13:45:57.607Z,7.50
2022-08-19T13:48:27.946Z,7.15
2022-08-19T13:50:56.709Z,7.40
2022-08-19T13:53:25.619Z,7.70
2022-08-19T13:55:54.694Z,8.25
2022-08-19T13:58:23.714Z,7.45
2022-08-19T14:00:51.680Z,6.47
2022-08-19T14:03:19.496Z,7.75
2022-08-19T14:05:47.771Z,5.95
2022-08-19T14:08:15.923Z,6.47
2022-08-19T14:10:45.734Z,5.78
2022-08-19T14:13:19.508Z,6.13
2022-08-19T14:15:48.466Z,6.38
2022-08-19T14:18:20.462Z,6.13
2022-08-19T14:20:48.451Z,6.43
2022-08-19T14:23:16.259Z,6.18
2022-08-19T14:25:44.466Z,6.25
2022-08-19T14:28:12.241Z,6.45
2022-08-19T14:30:40.202Z,5.55
2022-08-19T14:33:09.491Z,5.50
2022-08-19T14:35:38.049Z,5.43
2022-08-19T14:38:07.726Z,6.50
2022-08-19T14:40:35.789Z,6.28
2022-08-19T14:43:05.538Z,5.53
2022-08-19T14:45:37.319Z,6.07
2022-08-19T14:48:12.585Z,5.35
2022-08-19T14:50:47.511Z,5.97
2022-08-19T14:53:17.888Z,5.70
2022-08-19T14:55:47.356Z,6.15
2022-08-19T14:58:29.042Z,6.00
2022-08-19T15:01:01.083Z,5.80
2022-08-19T15:03:30.374Z,5.70
2022-08-19T15:06:00.091Z,5.82
2022-08-19T15:08:30.579Z,6.10
2022-08-19T15:10:59.870Z,5.63
2022-08-19T15:13:29.945Z,5.82
2022-08-19T15:15:58.197Z,5.90
2022-08-19T15:18:26.210Z,6.00
2022-08-19T15:20:55.977Z,5.97
2022-08-19T15:23:32.683Z,5.60
2022-08-19T15:26:00.425Z,6.68
2022-08-19T15:28:28.336Z,6.97
2022-08-19T15:30:56.116Z,6.75
2022-08-19T15:33:23.945Z,6.20
2022-08-19T15:35:52.224Z,5.75
2022-08-19T15:38:24.485Z,5.72
2022-08-19T15:40:52.410Z,6.25
2022-08-19T15:43:24.190Z,5.30
2022-08-19T15:45:51.964Z,5.22
2022-08-19T15:48:19.765Z,5.00
2022-08-19T15:50:47.549Z,5.05
2022-08-19T15:53:16.050Z,4.75
2022-08-19T15:55:46.209Z,4.60
2022-08-19T15:58:34.089Z,5.13
2022-08-19T16:01:26.976Z,4.80
2022-08-19T16:06:57.093Z,5.13
2022-08-19T16:09:29.792Z,4.18
2022-08-19T16:12:02.381Z,4.32
2022-08-19T16:14:33.463Z,4.70
2022-08-19T16:17:02.060Z,4.45
2022-08-19T16:19:31.044Z,5.00
2022-08-19T16:21:58.872Z,4.32
2022-08-19T16:24:28.545Z,4.43
2022-08-19T16:26:56.966Z,4.53
2022-08-19T16:29:34.572Z,4.38
2022-08-19T16:32:11.902Z,4.28
2022-08-19T16:34:41.832Z,4.95
2022-08-19T16:37:10.700Z,4.75
2022-08-19T16:39:39.409Z,6.32
2022-08-19T16:42:11.661Z,6.00
2022-08-19T16:44:45.772Z,4.95
2022-08-19T16:47:16.386Z,4.35
2022-08-19T16:49:53.438Z,6.78
2022-08-19T16:52:26.325Z,11.68
2022-08-19T16:54:54.895Z,11.57
2022-08-19T16:57:23.939Z,11.60
2022-08-19T16:59:52.561Z,12.73
2022-08-19T17:02:23.318Z,10.80
2022-08-19T17:04:57.421Z,11.23
2022-08-19T17:07:32.287Z,10.98
2022-08-19T17:10:04.782Z,10.38
2022-08-19T17:12:32.682Z,9.68
2022-08-19T17:15:08.216Z,9.57
2022-08-19T17:17:37.398Z,10.48
2022-08-19T17:20:07.437Z,9.20
2022-08-19T17:22:37.131Z,9.90
2022-08-19T17:25:05.373Z,10.60
2022-08-19T17:27:33.215Z,12.00
2022-08-19T17:30:06.811Z,10.73
2022-08-19T17:32:35.151Z,11.23
2022-08-19T17:35:04.842Z,11.48
2022-08-19T17:37:34.564Z,12.38
2022-08-19T17:40:08.985Z,11.77
2022-08-19T17:42:36.934Z,11.52
2022-08-19T17:45:06.575Z,11.45
2022-08-19T17:47:36.695Z,10.90
2022-08-19T17:50:12.840Z,11.88
2022-08-19T17:52:40.648Z,12.27
2022-08-19T17:55:10.386Z,11.75
2022-08-19T17:57:46.065Z,10.55
2022-08-19T18:00:17.064Z,12.35
2022-08-19T18:02:52.327Z,12.02
2022-08-19T18:05:29.700Z,11.70
2022-08-19T18:07:59.872Z,13.13
2022-08-19T18:10:34.909Z,12.15
2022-08-19T18:13:10.830Z,12.27
2022-08-19T18:15:45.885Z,12.80
2022-08-19T18:18:14.991Z,12.43
2022-08-19T18:20:44.604Z,12.15
2022-08-19T18:23:41.225Z,11.95
2022-08-19T18:26:02.330Z,11.68
2022-08-19T18:28:31.107Z,12.30
2022-08-19T18:30:59.273Z,12.02
2022-08-19T18:33:27.227Z,11.80
2022-08-19T18:35:55.304Z,12.20
2022-08-19T18:38:42.095Z,12.75
2022-08-19T18:41:29.631Z,12.05
2022-08-19T18:44:16.151Z,13.50
2022-08-19T18:47:02.811Z,13.73
2022-08-19T18:49:34.769Z,11.60
2022-08-19T18:52:03.663Z,12.85
2022-08-19T18:54:31.450Z,11.90
2022-08-19T18:56:59.473Z,11.25
2022-08-19T18:59:29.346Z,11.73
2022-08-19T19:01:59.537Z,12.68
2022-08-19T19:04:34.191Z,10.85
2022-08-19T19:07:01.969Z,8.40
2022-08-19T19:09:29.941Z,8.00
2022-08-19T19:12:03.058Z,7.60
2022-08-19T19:17:18.658Z,7.78
2022-08-19T19:19:46.516Z,7.18
2022-08-19T19:22:23.709Z,7.00
2022-08-19T19:24:54.126Z,6.82
2022-08-19T19:27:22.730Z,6.53
2022-08-19T19:29:52.568Z,6.28
2022-08-19T19:32:29.453Z,6.60
2022-08-19T19:34:57.447Z,5.82
2022-08-19T19:37:25.333Z,5.75
2022-08-19T19:39:53.209Z,5.75
2022-08-19T19:42:27.212Z,5.10
2022-08-19T19:44:56.281Z,5.82
2022-08-19T19:47:25.688Z,5.15
2022-08-19T19:52:46.063Z,5.20
2022-08-19T19:55:18.442Z,5.20
2022-08-19T19:57:48.821Z,5.97
2022-08-19T20:00:18.902Z,5.15
2022-08-19T20:02:50.165Z,5.10
2022-08-19T20:05:23.085Z,4.45
2022-08-19T20:08:12.520Z,4.55
2022-08-19T20:10:42.982Z,4.88
2022-08-19T20:13:15.546Z,4.63
2022-08-19T20:15:43.740Z,4.43
2022-08-19T20:18:14.600Z,4.55
2022-08-19T20:20:43.607Z,4.30
2022-08-19T20:23:11.415Z,4.30
2022-08-19T20:25:39.720Z,3.65
2022-08-19T20:28:07.560Z,3.65
2022-08-19T20:30:35.477Z,3.20
2022-08-19T20:33:06.910Z,3.55
2022-08-19T20:35:36.911Z,3.38
2022-08-19T20:38:06.580Z,3.53
2022-08-19T20:40:35.924Z,4.43
2022-08-19T20:43:09.360Z,3.97
2022-08-19T20:45:38.119Z,3.38
2022-08-19T20:48:08.092Z,3.10
2022-08-19T20:50:37.220Z,3.13
2022-08-19T20:53:17.067Z,3.45
2022-08-19T20:55:49.293Z,3.20
2022-08-19T20:58:21.251Z,2.75
2022-08-19T21:00:50.716Z,3.13
2022-08-19T21:03:24.568Z,3.03
2022-08-19T21:05:52.861Z,3.05
2022-08-19T21:08:20.875Z,2.58
2022-08-19T21:10:52.080Z,2.90
2022-08-19T21:13:21.228Z,2.60
2022-08-19T21:15:49.723Z,2.50
2022-08-19T21:18:20.724Z,2.70
2022-08-19T21:20:50.175Z,2.35
2022-08-19T21:23:22.391Z,2.17
2022-08-19T21:25:54.562Z,2.40
2022-08-19T21:28:35.066Z,3.10
2022-08-19T21:31:06.708Z,2.50
2022-08-19T21:33:34.556Z,2.00
2022-08-19T21:36:03.109Z,2.08
2022-08-19T21:38:31.389Z,1.75
2022-08-19T21:41:00.976Z,2.03
2022-08-19T21:43:35.826Z,2.10
2022-08-19T21:46:04.205Z,3.17
2022-08-19T21:48:32.405Z,2.17
2022-08-19T21:51:00.188Z,2.30
2022-08-19T21:53:31.697Z,2.20
2022-08-19T21:56:06.455Z,1.92
2022-08-19T21:58:36.520Z,2.30
2022-08-19T22:01:07.888Z,1.92
2022-08-19T22:03:37.651Z,1.90
2022-08-19T22:06:06.825Z,1.90
2022-08-19T22:08:34.615Z,1.77
2022-08-19T22:11:04.350Z,1.60
2022-08-19T22:13:40.105Z,1.80
2022-08-19T22:16:10.041Z,1.88
2022-08-19T22:18:38.048Z,1.85
2022-08-19T22:21:11.234Z,3.45
2022-08-19T22:23:44.407Z,1.80
2022-08-19T22:26:17.155Z,1.63
2022-08-19T22:28:45.108Z,1.80
2022-08-19T22:31:15.644Z,2.05
2022-08-19T22:33:43.912Z,2.20
2022-08-19T22:36:11.825Z,1.88
2022-08-19T22:38:39.971Z,2.08
2022-08-19T22:41:08.199Z,1.85
2022-08-19T22:43:37.567Z,1.70
2022-08-19T22:46:06.581Z,1.70
2022-08-19T22:48:46.237Z,2.08
2022-08-19T22:51:34.105Z,1.83
2022-08-19T22:54:03.186Z,1.52
2022-08-19T22:56:31.067Z,1.77
2022-08-19T22:58:58.965Z,1.65
2022-08-19T23:01:30.228Z,1.63
2022-08-19T23:03:59.693Z,1.58
2022-08-19T23:06:33.451Z,1.70
2022-08-19T23:09:05.352Z,1.52
2022-08-19T23:11:42.106Z,1.50
2022-08-19T23:14:12.567Z,1.80
2022-08-19T23:16:41.862Z,1.55
2022-08-19T23:19:10.530Z,1.30
2022-08-19T23:21:42.720Z,1.25
2022-08-19T23:24:11.440Z,1.80
2022-08-19T23:26:59.938Z,1.25
2022-08-19T23:29:47.318Z,2.00
2022-08-19T23:32:19.001Z,1.38
2022-08-19T23:34:47.277Z,1.30
2022-08-19T23:37:15.721Z,1.52
2022-08-19T23:39:44.609Z,1.45
2022-08-19T23:42:13.641Z,1.20
2022-08-19T23:44:52.281Z,1.30
2022-08-19T23:47:21.480Z,1.70
2022-08-19T23:49:49.478Z,1.58
2022-08-19T23:52:17.286Z,1.98
2022-08-19T23:54:45.112Z,1.60
2022-08-19T23:57:14.626Z,1.60
2022-08-19T23:59:45.605Z,1.50
